Time;durP1;ratioP1;P1;durP2;ratioP2;P2;SDS_P1;SDS_P2;PMS_P1;PMS_P2;Temp;Humidity;BMP_temperature;BMP_pressure;BME280_temperature;BME280_humidity;BME280_pressure;Samples;Min_cycle;Max_cycle;Signal;HPM_P1;HPM_P2
2023/01/31 00:02:34;;;;;;;;;;;;;;;18.63;59.77;100614.41;2302069;77;51548;-73
2023/01/31 00:05:36;;;;;;;;;;;;;;;18.58;59.97;100620.83;2303957;76;51487;-73
2023/01/31 00:08:37;;;;;;;;;;;;;;;18.53;60.06;100610.66;2304057;76;50307;-73
2023/01/31 00:11:39;;;;;;;;;;;;;;;18.46;60.18;100623.12;2303850;76;50378;-70
2023/01/31 00:14:41;;;;;;;;;;;;;;;18.40;60.37;100618.50;2294082;76;51448;-71
2023/01/31 00:17:42;;;;;;;;;;;;;;;18.34;60.46;100624.09;2245118;77;49657;-71
2023/01/31 00:20:44;;;;;;;;;;;;;;;18.30;60.74;100627.30;2304874;77;50462;-71
2023/01/31 00:23:46;;;;;;;;;;;;;;;18.25;60.95;100634.02;2280530;77;50753;-71
2023/01/31 00:26:49;;;;;;;;;;;;;;;18.30;60.89;100640.19;2304706;77;50346;-72
2023/01/31 00:29:50;;;;;;;;;;;;;;;18.38;60.87;100646.80;2304993;77;22303;-72
2023/01/31 00:32:52;;;;;;;;;;;;;;;18.48;60.60;100646.03;2304634;77;51538;-72
2023/01/31 00:35:54;;;;;;;;;;;;;;;18.58;60.26;100647.63;2255805;77;52610;-72
2023/01/31 00:38:56;;;;;;;;;;;;;;;18.55;60.30;100644.81;2304923;77;50348;-72
2023/01/31 00:41:58;;;;;;;;;;;;;;;18.52;60.35;100652.36;2255624;77;52685;-73
2023/01/31 00:45:00;;;;;;;;;;;;;;;18.47;60.41;100654.24;2292231;77;50620;-72
2023/01/31 00:48:01;;;;;;;;;;;;;;;18.43;60.53;100663.67;2261280;77;50765;-72
2023/01/31 00:51:03;;;;;;;;;;;;;;;18.38;60.62;100656.17;2266818;78;51463;-72
2023/01/31 00:54:04;;;;;;;;;;;;;;;18.36;60.65;100662.22;2218773;78;51636;-72
2023/01/31 00:57:06;;;;;;;;;;;;;;;18.30;60.74;100664.80;2266805;78;51654;-71
2023/01/31 01:00:08;;;;;;;;;;;;;;;18.20;61.00;100682.45;2243304;78;51499;-72
2023/01/31 01:03:10;;;;;;;;;;;;;;;18.15;61.27;100680.30;2266580;78;50426;-72
2023/01/31 01:06:11;;;;;;;;;;;;;;;18.18;61.34;100685.81;2243366;78;49521;-72
2023/01/31 01:09:13;;;;;;;;;;;;;;;18.26;61.29;100697.31;2266821;78;50286;-71
2023/01/31 01:12:14;;;;;;;;;;;;;;;18.33;61.08;100694.73;2243208;78;50714;-72
2023/01/31 01:15:16;;;;;;;;;;;;;;;18.35;61.13;100695.39;2281987;77;51591;-72
2023/01/31 01:18:18;;;;;;;;;;;;;;;18.42;61.06;100709.73;2245135;77;51675;-72
2023/01/31 01:21:20;;;;;;;;;;;;;;;18.49;60.87;100722.71;2266925;78;51483;-72
2023/01/31 01:24:22;;;;;;;;;;;;;;;18.50;60.91;100732.95;2266711;78;50398;-71
2023/01/31 01:27:24;;;;;;;;;;;;;;;18.47;60.81;100731.94;2266811;78;50325;-72
2023/01/31 01:30:25;;;;;;;;;;;;;;;18.44;60.83;100723.76;2266621;78;50235;-72
2023/01/31 01:33:27;;;;;;;;;;;;;;;18.40;60.82;100727.83;2266324;78;50328;-72
2023/01/31 01:36:28;;;;;;;;;;;;;;;18.35;60.96;100730.21;2266895;78;50391;-73
2023/01/31 01:39:30;;;;;;;;;;;;;;;18.33;60.91;100720.17;2266799;78;50273;-72
2023/01/31 01:42:33;;;;;;;;;;;;;;;18.25;60.97;100729.11;2241229;78;51253;-72
2023/01/31 01:45:35;;;;;;;;;;;;;;;18.15;61.21;100720.98;2286151;77;50270;-72
2023/01/31 01:48:36;;;;;;;;;;;;;;;18.14;61.31;100725.52;2266905;78;50282;-72
2023/01/31 01:51:38;;;;;;;;;;;;;;;18.18;61.25;100730.83;2266832;78;50654;-73
2023/01/31 01:54:41;;;;;;;;;;;;;;;18.29;61.15;100747.02;2257918;77;52554;-73
2023/01/31 01:57:43;;;;;;;;;;;;;;;18.36;60.89;100750.62;2304788;77;51563;-72
2023/01/31 02:00:45;;;;;;;;;;;;;;;18.47;60.63;100758.25;2304899;77;50363;-73
2023/01/31 02:03:46;;;;;;;;;;;;;;;18.52;60.51;100764.91;2304747;77;50753;-73
2023/01/31 02:06:48;;;;;;;;;;;;;;;18.50;60.56;100777.98;2280570;77;51275;-74
2023/01/31 02:10:00;;;;;;;;;;;;;;;18.46;60.73;100787.89;2304957;77;50741;-72
2023/01/31 02:13:02;;;;;;;;;;;;;;;18.41;60.78;100793.78;2304431;77;50370;-72
2023/01/31 02:16:04;;;;;;;;;;;;;;;18.40;60.93;100792.13;2266702;78;50276;-72
2023/01/31 02:19:07;;;;;;;;;;;;;;;18.38;60.85;100794.66;2268160;78;52308;-73
2023/01/31 02:22:28;;;;;;;;;;;;;;;18.34;60.88;100796.87;2266718;78;51482;-72
2023/01/31 02:25:50;;;;;;;;;;;;;;;18.24;61.04;100805.12;2266777;78;51586;-72
2023/01/31 02:28:56;;;;;;;;;;;;;;;18.16;61.26;100811.88;2266782;78;50796;-72
2023/01/31 02:32:17;;;;;;;;;;;;;;;18.20;61.38;100821.72;2243214;78;52702;-72
2023/01/31 02:35:37;;;;;;;;;;;;;;;18.24;61.36;100829.23;2243301;78;52311;-72
2023/01/31 02:38:47;;;;;;;;;;;;;;;18.34;61.13;100831.70;2266850;78;51559;-74
2023/01/31 02:41:59;;;;;;;;;;;;;;;18.40;60.96;100830.97;2266800;78;50331;-73
2023/01/31 02:45:08;;;;;;;;;;;;;;;18.47;60.82;100835.09;2250384;78;53036;-72
2023/01/31 02:48:20;;;;;;;;;;;;;;;18.50;60.71;100839.62;2266623;78;50456;-72
2023/01/31 02:51:27;;;;;;;;;;;;;;;18.49;60.67;100835.77;2266821;78;51739;-71
2023/01/31 02:56:13;;;;;;;;;;;;;;;18.44;60.87;100824.74;2266065;78;51542;-73
2023/01/31 02:57:31;;;;;;;;;;;;;;;18.42;60.77;100823.59;2267295;78;22363;-73
2023/01/31 03:00:34;;;;;;;;;;;;;;;18.36;61.09;100825.62;2266799;78;50403;-72
2023/01/31 03:03:37;;;;;;;;;;;;;;;18.35;60.95;100824.48;2266674;78;51511;-72
2023/01/31 03:06:42;;;;;;;;;;;;;;;18.28;61.03;100833.72;2266801;78;50779;-73
2023/01/31 03:09:55;;;;;;;;;;;;;;;18.18;61.29;100819.72;2243077;78;52448;-72
2023/01/31 03:13:07;;;;;;;;;;;;;;;18.13;61.42;100822.09;2266041;78;51522;-72
2023/01/31 03:19:47;;;;;;;;;;;;;;;18.23;61.37;100818.69;2305163;77;22408;-73
2023/01/31 03:22:50;;;;;;;;;;;;;;;18.31;61.30;100822.65;2290507;77;22511;-73
2023/01/31 03:25:51;;;;;;;;;;;;;;;18.41;60.86;100819.75;2303677;77;51342;-74
2023/01/31 03:28:55;;;;;;;;;;;;;;;18.42;60.78;100824.94;2304870;77;51409;-72
2023/01/31 03:31:58;;;;;;;;;;;;;;;18.41;60.73;100831.29;2304773;77;22485;-73
2023/01/31 03:35:00;;;;;;;;;;;;;;;18.37;60.75;100838.52;2280483;77;51769;-73
2023/01/31 03:38:17;;;;;;;;;;;;;;;18.34;60.83;100844.23;2304863;77;51554;-73
2023/01/31 03:41:29;;;;;;;;;;;;;;;18.28;60.90;100850.62;2304874;77;50254;-73
2023/01/31 03:44:32;;;;;;;;;;;;;;;18.23;60.92;100852.16;2295380;77;50468;-73
2023/01/31 03:47:47;;;;;;;;;;;;;;;18.17;61.01;100854.22;2290446;76;50774;-73
2023/01/31 03:50:51;;;;;;;;;;;;;;;18.10;61.13;100858.59;2302237;77;50290;-73
2023/01/31 03:53:53;;;;;;;;;;;;;;;18.06;61.36;100862.14;2302053;76;50517;-73
2023/01/31 03:56:56;;;;;;;;;;;;;;;18.08;61.37;100850.72;2302191;77;51475;-72
2023/01/31 03:59:58;;;;;;;;;;;;;;;18.13;61.28;100863.59;2303909;76;51226;-73
2023/01/31 04:03:01;;;;;;;;;;;;;;;18.17;61.21;100869.77;2301993;77;51617;-73
2023/01/31 04:06:03;;;;;;;;;;;;;;;18.26;60.96;100871.41;2301831;77;51416;-73
2023/01/31 04:09:04;;;;;;;;;;;;;;;18.36;60.70;100867.66;2302334;77;51422;-73
2023/01/31 04:12:06;;;;;;;;;;;;;;;18.39;60.70;100867.30;2302288;76;51446;-73
2023/01/31 04:15:08;;;;;;;;;;;;;;;18.37;60.76;100876.02;2289060;77;51459;-73
2023/01/31 04:18:09;;;;;;;;;;;;;;;18.35;60.74;100887.44;2263969;78;50233;-73
2023/01/31 04:21:13;;;;;;;;;;;;;;;18.31;60.81;100887.45;2272056;78;50764;-73
2023/01/31 04:24:14;;;;;;;;;;;;;;;18.30;60.82;100887.13;2244359;78;51331;-74
2023/01/31 04:27:16;;;;;;;;;;;;;;;18.25;60.81;100899.70;2243948;78;50717;-73
2023/01/31 04:30:18;;;;;;;;;;;;;;;18.19;60.91;100891.04;2245694;78;51542;-72
2023/01/31 04:33:19;;;;;;;;;;;;;;;18.11;60.97;100888.37;2246077;78;50775;-74
2023/01/31 04:36:21;;;;;;;;;;;;;;;18.04;61.14;100898.45;2269296;77;50991;-74
2023/01/31 04:39:22;;;;;;;;;;;;;;;18.03;61.29;100890.09;2267126;78;50272;-73
2023/01/31 04:42:24;;;;;;;;;;;;;;;18.11;61.31;100896.41;2267064;78;50611;-73
2023/01/31 04:45:25;;;;;;;;;;;;;;;18.19;61.19;100904.43;2254377;77;50391;-73
2023/01/31 04:48:27;;;;;;;;;;;;;;;18.32;60.93;100895.32;2222363;78;51789;-73
2023/01/31 04:51:29;;;;;;;;;;;;;;;18.41;60.62;100912.17;2267015;78;50417;-73
2023/01/31 04:54:30;;;;;;;;;;;;;;;18.41;60.50;100913.00;2266648;78;50164;-73
2023/01/31 04:57:32;;;;;;;;;;;;;;;18.39;60.53;100915.53;2243588;78;50289;-73
2023/01/31 05:00:34;;;;;;;;;;;;;;;18.37;60.54;100922.42;2243440;78;49566;-73
2023/01/31 05:03:36;;;;;;;;;;;;;;;18.31;60.65;100918.25;2266715;78;51548;-72
2023/01/31 05:06:37;;;;;;;;;;;;;;;18.27;60.71;100922.63;2243516;78;50328;-73
2023/01/31 05:09:41;;;;;;;;;;;;;;;18.20;60.83;100924.83;2266846;78;51513;-72
2023/01/31 05:12:42;;;;;;;;;;;;;;;18.13;60.86;100917.98;2267030;77;22354;-72
2023/01/31 05:15:45;;;;;;;;;;;;;;;18.05;61.04;100923.38;2254683;77;49818;-72
2023/01/31 05:18:49;;;;;;;;;;;;;;;18.00;61.23;100923.89;2304935;77;50817;-72
2023/01/31 05:21:59;;;;;;;;;;;;;;;18.03;61.30;100930.73;2305152;77;22366;-72
2023/01/31 05:25:01;;;;;;;;;;;;;;;18.05;61.32;100929.56;2280707;77;51059;-73
2023/01/31 05:28:03;;;;;;;;;;;;;;;18.15;61.13;100927.20;2280760;77;51512;-72
2023/01/31 05:31:05;;;;;;;;;;;;;;;18.19;61.09;100936.56;2280924;77;50725;-71
2023/01/31 05:34:09;;;;;;;;;;;;;;;18.27;60.97;100937.36;2304798;77;50285;-71
2023/01/31 05:37:10;;;;;;;;;;;;;;;18.37;60.72;100932.28;2280652;77;52553;-72
2023/01/31 05:40:12;;;;;;;;;;;;;;;18.40;60.60;100928.77;2305037;77;51458;-74
2023/01/31 05:43:14;;;;;;;;;;;;;;;18.38;60.66;100939.33;2277922;77;51567;-72
2023/01/31 05:46:15;;;;;;;;;;;;;;;18.34;60.74;100947.37;2255790;78;51471;-72
2023/01/31 05:49:17;;;;;;;;;;;;;;;18.30;60.79;100944.21;2243730;78;51693;-72
2023/01/31 05:52:19;;;;;;;;;;;;;;;18.29;60.93;100958.63;2243949;78;50733;-73
2023/01/31 05:55:21;;;;;;;;;;;;;;;18.25;60.92;100946.58;2244009;78;51570;-71
2023/01/31 05:58:22;;;;;;;;;;;;;;;18.22;60.63;100945.59;2244394;78;51239;-71
2023/01/31 06:01:25;;;;;;;;;;;;;;;18.10;60.66;100941.09;2243997;78;51099;-71
2023/01/31 06:04:27;;;;;;;;;;;;;;;18.08;60.66;100945.78;2244157;78;51983;-72
2023/01/31 06:07:28;;;;;;;;;;;;;;;18.11;60.64;100959.34;2267280;78;50413;-71
2023/01/31 06:10:30;;;;;;;;;;;;;;;18.21;60.30;100947.92;2244056;78;50841;-71
2023/01/31 06:13:32;;;;;;;;;;;;;;;18.30;60.00;100956.27;2218492;77;50443;-71
2023/01/31 06:16:33;;;;;;;;;;;;;;;18.34;59.89;100954.06;2291306;77;50400;-71
2023/01/31 06:19:37;;;;;;;;;;;;;;;18.26;59.97;100946.41;2281302;77;50363;-72
2023/01/31 06:22:38;;;;;;;;;;;;;;;18.23;60.06;100960.64;2305119;77;51560;-72
2023/01/31 06:25:40;;;;;;;;;;;;;;;18.21;60.09;100955.47;2280863;77;52358;-71
2023/01/31 06:28:42;;;;;;;;;;;;;;;18.18;60.41;100973.71;2305352;77;50770;-72
2023/01/31 06:31:44;;;;;;;;;;;;;;;18.13;60.53;100968.03;2280900;77;52534;-71
2023/01/31 06:34:45;;;;;;;;;;;;;;;18.05;60.71;100976.42;2304959;77;51516;-73
2023/01/31 06:37:47;;;;;;;;;;;;;;;17.98;60.92;100972.78;2256011;77;52479;-73
2023/01/31 06:40:49;;;;;;;;;;;;;;;17.95;60.98;100973.09;2280809;77;53842;-74
2023/01/31 06:43:50;;;;;;;;;;;;;;;17.97;60.99;100980.97;2297326;77;51441;-73
2023/01/31 06:46:52;;;;;;;;;;;;;;;18.02;60.81;100982.63;2291609;77;50290;-74
2023/01/31 06:49:53;;;;;;;;;;;;;;;18.12;60.49;100981.94;2305063;77;50257;-73
2023/01/31 06:52:55;;;;;;;;;;;;;;;18.22;60.18;100977.73;2305062;77;50350;-73
2023/01/31 06:55:56;;;;;;;;;;;;;;;18.27;60.03;100984.75;2305195;77;50675;-73
2023/01/31 06:58:58;;;;;;;;;;;;;;;18.34;59.77;100979.03;2305197;77;51556;-73
2023/01/31 07:02:00;;;;;;;;;;;;;;;18.33;59.71;100980.53;2281038;77;51093;-74
2023/01/31 07:05:01;;;;;;;;;;;;;;;18.37;59.46;100978.68;2305666;77;51649;-74
2023/01/31 07:08:03;;;;;;;;;;;;;;;18.35;59.45;100983.88;2305300;77;53385;-74
2023/01/31 07:11:04;;;;;;;;;;;;;;;18.34;59.44;100979.03;2281305;77;50738;-74
2023/01/31 07:14:06;;;;;;;;;;;;;;;18.29;59.55;100974.70;2243805;78;49616;-74
2023/01/31 07:17:08;;;;;;;;;;;;;;;18.22;59.70;100984.42;2267323;78;50653;-74
2023/01/31 07:20:10;;;;;;;;;;;;;;;18.18;59.83;100986.59;2243827;78;50777;-74
2023/01/31 07:23:11;;;;;;;;;;;;;;;18.05;60.22;100975.59;2267126;78;50304;-75
2023/01/31 07:26:13;;;;;;;;;;;;;;;18.03;60.31;100962.39;2243892;78;51177;-74
2023/01/31 07:29:14;;;;;;;;;;;;;;;18.12;60.12;100945.78;2268188;78;50306;-74
2023/01/31 07:32:16;;;;;;;;;;;;;;;18.27;59.77;100956.11;2267707;78;50400;-74
2023/01/31 07:35:17;;;;;;;;;;;;;;;18.34;59.57;100972.34;2268059;78;50118;-74
2023/01/31 07:38:19;;;;;;;;;;;;;;;18.33;59.58;100980.02;2263338;77;51108;-74
2023/01/31 07:41:21;;;;;;;;;;;;;;;18.34;59.52;100972.81;2282622;77;50279;-74
2023/01/31 07:44:22;;;;;;;;;;;;;;;18.34;59.49;100976.35;2295933;77;50770;-74
2023/01/31 07:47:24;;;;;;;;;;;;;;;18.34;59.43;100980.85;2279857;77;50131;-74
2023/01/31 07:50:26;;;;;;;;;;;;;;;18.28;59.57;100977.03;2220049;77;51127;-73
2023/01/31 07:53:28;;;;;;;;;;;;;;;18.25;59.61;100967.49;2256145;78;51442;-73
2023/01/31 07:56:30;;;;;;;;;;;;;;;18.21;59.59;100972.02;2267280;77;50322;-73
2023/01/31 07:59:31;;;;;;;;;;;;;;;18.06;59.75;100975.44;2266987;77;50778;-73
2023/01/31 08:05:52;;;;;;;;;;;;;;;17.96;60.18;100966.75;2292147;77;22335;-73
2023/01/31 08:08:54;;;;;;;;;;;;;;;18.02;60.09;100970.08;2282254;76;51547;-73
2023/01/31 08:11:55;;;;;;;;;;;;;;;18.09;59.84;100963.54;2264759;78;53475;-73
2023/01/31 08:14:57;;;;;;;;;;;;;;;18.18;59.62;100952.29;2266752;78;51457;-73
2023/01/31 08:17:59;;;;;;;;;;;;;;;18.21;59.51;100962.17;2243454;78;51453;-75
2023/01/31 08:21:00;;;;;;;;;;;;;;;18.34;59.19;100956.27;2283837;77;50264;-72
2023/01/31 08:24:02;;;;;;;;;;;;;;;18.32;59.42;100954.77;2304584;77;50350;-73
2023/01/31 08:27:03;;;;;;;;;;;;;;;18.25;59.89;100957.29;2232684;78;52563;-72
2023/01/31 08:30:06;;;;;;;;;;;;;;;18.20;59.74;100952.95;2262760;78;50693;-73
2023/01/31 08:33:08;;;;;;;;;;;;;;;18.17;59.75;100957.33;2284808;77;51678;-73
2023/01/31 08:36:17;;;;;;;;;;;;;;;18.10;59.93;100954.48;2302376;77;50202;-74
2023/01/31 08:39:18;;;;;;;;;;;;;;;18.05;60.01;100942.95;2263580;77;52418;-73
2023/01/31 08:42:20;;;;;;;;;;;;;;;18.02;60.10;100941.13;2255172;78;51474;-74
2023/01/31 08:45:21;;;;;;;;;;;;;;;17.99;60.08;100947.66;2268339;77;51484;-73
2023/01/31 08:48:23;;;;;;;;;;;;;;;17.96;60.20;100949.36;2299915;77;51461;-73
2023/01/31 08:51:24;;;;;;;;;;;;;;;17.99;60.16;100942.31;2281572;77;50264;-74
2023/01/31 08:54:26;;;;;;;;;;;;;;;18.01;60.17;100951.02;2266266;77;50123;-74
2023/01/31 08:57:28;;;;;;;;;;;;;;;18.08;59.97;100944.95;2255567;78;50768;-74
2023/01/31 09:00:30;;;;;;;;;;;;;;;18.10;59.92;100938.94;2266967;78;50315;-74
2023/01/31 09:03:31;;;;;;;;;;;;;;;18.11;59.90;100941.45;2217713;78;51399;-75
2023/01/31 09:06:33;;;;;;;;;;;;;;;18.10;59.94;100932.23;2278667;77;50442;-74
2023/01/31 09:09:34;;;;;;;;;;;;;;;18.08;59.98;100931.56;2302343;77;50652;-74
2023/01/31 09:12:36;;;;;;;;;;;;;;;18.05;60.05;100939.44;2293069;77;51354;-75
2023/01/31 09:15:38;;;;;;;;;;;;;;;18.01;60.07;100929.59;2242766;78;51526;-74
2023/01/31 09:18:39;;;;;;;;;;;;;;;17.97;60.06;100928.25;2243464;78;50654;-74
2023/01/31 09:21:41;;;;;;;;;;;;;;;17.93;60.07;100912.22;2279826;77;50409;-76
2023/01/31 09:24:44;;;;;;;;;;;;;;;17.90;59.98;100921.08;2304865;77;50307;-74
2023/01/31 09:27:46;;;;;;;;;;;;;;;17.94;59.92;100911.20;2281308;77;24357;-73
2023/01/31 09:30:47;;;;;;;;;;;;;;;17.95;59.96;100913.37;2301488;77;52877;-74
2023/01/31 09:33:49;;;;;;;;;;;;;;;17.99;59.81;100917.38;2291372;77;50753;-75
2023/01/31 09:36:51;;;;;;;;;;;;;;;18.04;59.70;100915.85;2280832;77;51446;-74
2023/01/31 09:39:52;;;;;;;;;;;;;;;18.10;59.58;100908.14;2241886;77;52292;-75
2023/01/31 09:42:54;;;;;;;;;;;;;;;18.10;59.54;100906.28;2269232;77;50950;-75
2023/01/31 09:45:56;;;;;;;;;;;;;;;18.10;59.49;100900.10;2266993;78;50219;-74
2023/01/31 09:48:58;;;;;;;;;;;;;;;18.10;59.47;100904.13;2271300;77;50675;-73
2023/01/31 09:52:00;;;;;;;;;;;;;;;18.06;59.49;100895.09;2290646;77;50022;-73
2023/01/31 09:55:02;;;;;;;;;;;;;;;18.02;59.50;100893.77;2294049;77;51530;-73
2023/01/31 09:58:15;;;;;;;;;;;;;;;18.01;59.57;100887.27;2285608;76;51545;-73
2023/01/31 10:01:27;;;;;;;;;;;;;;;17.97;59.57;100878.72;2282133;76;51380;-73
2023/01/31 10:04:30;;;;;;;;;;;;;;;17.95;59.62;100878.56;2266355;77;52752;-73
2023/01/31 10:07:33;;;;;;;;;;;;;;;17.93;59.58;100875.22;2290496;77;51633;-73
2023/01/31 10:10:48;;;;;;;;;;;;;;;17.94;59.64;100871.55;2302306;76;51538;-73
2023/01/31 10:13:56;;;;;;;;;;;;;;;17.97;59.63;100865.84;2288985;77;50793;-73
2023/01/31 10:17:11;;;;;;;;;;;;;;;18.03;59.41;100859.78;2274065;77;51585;-73
2023/01/31 10:20:17;;;;;;;;;;;;;;;18.06;59.29;100846.91;2281224;77;50271;-73
2023/01/31 10:23:21;;;;;;;;;;;;;;;18.09;59.24;100852.92;2270088;76;52381;-73
2023/01/31 10:26:23;;;;;;;;;;;;;;;18.07;59.20;100846.39;2279191;77;51611;-73
2023/01/31 10:29:29;;;;;;;;;;;;;;;18.05;59.12;100838.52;2241980;77;52410;-73
2023/01/31 10:32:33;;;;;;;;;;;;;;;18.03;59.17;100833.01;2290288;77;51551;-73
2023/01/31 10:35:39;;;;;;;;;;;;;;;18.01;59.10;100839.06;2287705;77;50489;-72
2023/01/31 10:38:42;;;;;;;;;;;;;;;17.96;59.09;100824.86;2253634;78;50680;-75
2023/01/31 10:41:49;;;;;;;;;;;;;;;17.93;59.13;100818.52;2262851;78;52423;-75
2023/01/31 10:44:54;;;;;;;;;;;;;;;17.91;59.14;100810.34;2264691;78;50338;-75
2023/01/31 10:48:00;;;;;;;;;;;;;;;17.89;59.22;100802.47;2266924;78;50800;-75
2023/01/31 10:51:08;;;;;;;;;;;;;;;17.90;59.28;100805.46;2265906;78;23058;-75
2023/01/31 10:54:14;;;;;;;;;;;;;;;17.94;59.25;100801.95;2242438;77;49803;-75
2023/01/31 10:57:16;;;;;;;;;;;;;;;18.03;59.06;100790.17;2286157;77;49806;-75
2023/01/31 11:00:28;;;;;;;;;;;;;;;18.09;58.94;100789.48;2302293;77;51629;-75
2023/01/31 11:03:30;;;;;;;;;;;;;;;18.11;58.87;100773.22;2294226;77;51668;-75
2023/01/31 11:06:31;;;;;;;;;;;;;;;18.11;58.81;100774.08;2258636;77;52643;-75
2023/01/31 11:09:34;;;;;;;;;;;;;;;18.11;58.80;100766.05;2300318;77;50263;-75
2023/01/31 11:12:40;;;;;;;;;;;;;;;18.09;58.85;100756.52;2291904;77;50785;-75
2023/01/31 11:15:46;;;;;;;;;;;;;;;18.08;58.84;100748.14;2304740;77;51495;-75
2023/01/31 11:18:48;;;;;;;;;;;;;;;18.03;58.91;100746.85;2305000;76;22369;-72
2023/01/31 11:21:53;;;;;;;;;;;;;;;17.98;58.46;100743.01;2304713;77;51528;-72
2023/01/31 11:24:54;;;;;;;;;;;;;;;17.94;58.05;100731.01;2304464;77;50775;-72
2023/01/31 11:28:03;;;;;;;;;;;;;;;17.88;58.25;100735.70;2304696;77;50301;-72
2023/01/31 11:31:07;;;;;;;;;;;;;;;17.91;58.13;100724.67;2255519;77;51230;-71
2023/01/31 11:34:25;;;;;;;;;;;;;;;18.00;57.71;100720.91;2302765;77;51840;-72
2023/01/31 11:37:28;;;;;;;;;;;;;;;18.06;57.54;100704.16;2304745;77;50536;-73
2023/01/31 11:40:31;;;;;;;;;;;;;;;18.15;57.32;100698.23;2292194;77;50687;-72
2023/01/31 11:43:33;;;;;;;;;;;;;;;18.23;57.20;100699.50;2266490;78;51819;-72
2023/01/31 11:46:39;;;;;;;;;;;;;;;18.22;57.23;100686.62;2243537;78;51618;-73
2023/01/31 11:49:41;;;;;;;;;;;;;;;18.23;57.18;100692.29;2259818;78;50258;-72
2023/01/31 11:52:44;;;;;;;;;;;;;;;18.26;57.17;100679.91;2267078;77;50359;-73
2023/01/31 11:55:46;;;;;;;;;;;;;;;18.18;57.31;100664.39;2266562;78;50750;-73
2023/01/31 11:58:48;;;;;;;;;;;;;;;18.15;57.44;100666.09;2243397;78;50136;-72
2023/01/31 12:01:51;;;;;;;;;;;;;;;18.09;57.60;100662.80;2266735;78;50302;-73
2023/01/31 12:04:52;;;;;;;;;;;;;;;18.06;57.70;100649.27;2266706;78;51605;-72
2023/01/31 12:07:54;;;;;;;;;;;;;;;17.98;57.85;100632.77;2266760;78;51495;-73
2023/01/31 12:10:56;;;;;;;;;;;;;;;17.91;58.11;100622.44;2231982;78;52502;-72
2023/01/31 12:14:02;;;;;;;;;;;;;;;17.85;58.26;100611.09;2266628;78;50525;-73
2023/01/31 12:17:04;;;;;;;;;;;;;;;17.87;58.28;100595.69;2266077;77;51514;-72
2023/01/31 12:20:08;;;;;;;;;;;;;;;17.99;58.10;100587.56;2243528;78;51442;-72
2023/01/31 12:23:18;;;;;;;;;;;;;;;18.10;57.82;100584.12;2242980;78;49790;-73
2023/01/31 12:26:36;;;;;;;;;;;;;;;18.12;57.75;100573.56;2266622;78;51463;-73
2023/01/31 12:29:48;;;;;;;;;;;;;;;18.14;57.68;100576.89;2183238;81;51539;-74
2023/01/31 12:32:51;;;;;;;;;;;;;;;18.13;57.70;100571.70;2264913;78;51467;-73
2023/01/31 12:36:03;;;;;;;;;;;;;;;18.12;57.69;100558.01;2243022;78;52455;-73
2023/01/31 12:39:16;;;;;;;;;;;;;;;18.09;57.78;100553.02;2267712;77;51309;-74
2023/01/31 12:42:23;;;;;;;;;;;;;;;18.04;57.87;100549.03;2279246;77;51532;-74
2023/01/31 12:45:30;;;;;;;;;;;;;;;18.02;57.91;100539.00;2266891;78;50321;-74
2023/01/31 12:48:50;;;;;;;;;;;;;;;17.91;58.15;100530.59;2243380;78;51229;-74
2023/01/31 12:51:58;;;;;;;;;;;;;;;17.83;58.43;100535.52;2266877;78;52388;-74
2023/01/31 12:54:58;;;;;;;;;;;;;;;17.82;58.52;100535.17;2265926;78;21792;-74
2023/01/31 12:58:18;;;;;;;;;;;;;;;17.89;58.39;100526.75;2266309;78;50318;-75
2023/01/31 13:01:24;;;;;;;;;;;;;;;18.04;58.04;100512.06;2243190;78;52615;-74
2023/01/31 13:04:39;;;;;;;;;;;;;;;18.13;57.84;100522.17;2265348;77;50464;-74
2023/01/31 13:07:43;;;;;;;;;;;;;;;18.21;57.60;100512.70;2265990;78;51781;-74
2023/01/31 13:10:45;;;;;;;;;;;;;;;18.19;57.63;100489.32;2280580;76;51486;-74
2023/01/31 13:13:48;;;;;;;;;;;;;;;18.19;57.59;100494.16;2280339;77;50997;-74
2023/01/31 13:16:51;;;;;;;;;;;;;;;18.18;57.57;100497.84;2304659;77;50682;-74
2023/01/31 13:19:56;;;;;;;;;;;;;;;18.16;57.62;100497.70;2303964;77;50760;-73
2023/01/31 13:22:59;;;;;;;;;;;;;;;18.10;57.75;100493.09;2277069;77;50253;-73
2023/01/31 13:26:02;;;;;;;;;;;;;;;18.12;57.78;100485.71;2261723;78;53334;-73
2023/01/31 13:29:11;;;;;;;;;;;;;;;18.01;58.55;100495.03;2268145;77;51456;-71
2023/01/31 13:32:17;;;;;;;;;;;;;;;18.00;58.76;100490.67;2266424;77;50465;-72
2023/01/31 13:35:23;;;;;;;;;;;;;;;17.98;58.97;100483.33;2282911;77;50604;-72
2023/01/31 13:38:25;;;;;;;;;;;;;;;18.00;58.92;100474.61;2277683;77;51269;-72
2023/01/31 13:41:27;;;;;;;;;;;;;;;18.05;58.75;100467.69;2279762;76;50320;-72
2023/01/31 13:44:29;;;;;;;;;;;;;;;18.09;58.59;100472.19;2280577;77;51590;-73
2023/01/31 13:47:32;;;;;;;;;;;;;;;18.14;58.55;100463.60;2301531;76;50259;-72
2023/01/31 13:50:35;;;;;;;;;;;;;;;18.17;58.42;100451.17;2263581;77;49824;-72
2023/01/31 13:53:38;;;;;;;;;;;;;;;18.17;58.34;100460.55;2269577;77;51710;-74
2023/01/31 13:56:40;;;;;;;;;;;;;;;18.15;58.22;100466.08;2296194;77;51497;-72
2023/01/31 13:59:41;;;;;;;;;;;;;;;18.15;58.26;100465.25;2278354;77;51417;-71
2023/01/31 14:02:44;;;;;;;;;;;;;;;18.10;58.27;100456.94;2228655;78;51092;-72
2023/01/31 14:05:50;;;;;;;;;;;;;;;18.03;58.39;100459.03;2286296;77;50285;-72
2023/01/31 14:08:54;;;;;;;;;;;;;;;17.97;58.50;100451.72;2271921;77;51581;-72
2023/01/31 14:11:56;;;;;;;;;;;;;;;17.91;58.63;100464.50;2284722;76;51553;-71
2023/01/31 14:14:57;;;;;;;;;;;;;;;17.84;58.77;100460.37;2260208;77;52599;-72
2023/01/31 14:18:01;;;;;;;;;;;;;;;17.85;58.80;100463.87;2267087;77;50139;-72
2023/01/31 14:21:20;;;;;;;;;;;;;;;17.89;58.74;100459.02;2300439;77;51469;-72
2023/01/31 14:24:40;;;;;;;;;;;;;;;18.04;58.35;100446.47;2290113;76;50283;-72
2023/01/31 14:27:43;;;;;;;;;;;;;;;18.09;58.18;100449.42;2270957;77;50717;-72
2023/01/31 14:30:46;;;;;;;;;;;;;;;18.21;57.88;100444.42;2284904;77;51591;-72
2023/01/31 14:33:49;;;;;;;;;;;;;;;18.29;57.60;100440.33;2278910;76;50042;-72
2023/01/31 14:36:58;;;;;;;;;;;;;;;18.31;57.50;100442.28;2282230;77;51578;-72
2023/01/31 14:40:11;;;;;;;;;;;;;;;18.28;57.51;100442.66;2260528;77;52415;-72
2023/01/31 14:43:20;;;;;;;;;;;;;;;18.25;57.56;100430.48;2288592;76;51492;-71
2023/01/31 14:46:26;;;;;;;;;;;;;;;18.19;57.63;100426.39;2304691;77;50316;-72
2023/01/31 14:49:39;;;;;;;;;;;;;;;18.18;57.65;100426.05;2303326;77;50026;-72
2023/01/31 14:52:48;;;;;;;;;;;;;;;18.13;57.74;100420.42;2260444;77;51477;-71
2023/01/31 14:55:57;;;;;;;;;;;;;;;17.98;58.15;100413.23;2266295;78;50841;-72
2023/01/31 14:58:59;;;;;;;;;;;;;;;17.89;58.45;100404.97;2266693;77;51542;-72
2023/01/31 15:02:01;;;;;;;;;;;;;;;17.89;58.49;100414.33;2302159;77;50497;-72
2023/01/31 15:05:04;;;;;;;;;;;;;;;17.99;58.30;100414.06;2269517;77;50257;-71
2023/01/31 15:08:07;;;;;;;;;;;;;;;18.15;57.91;100405.00;2266616;77;51543;-73
2023/01/31 15:11:13;;;;;;;;;;;;;;;18.26;57.62;100409.87;2263744;77;51505;-73
2023/01/31 15:14:22;;;;;;;;;;;;;;;18.30;57.41;100393.77;2286726;77;50719;-72
2023/01/31 15:17:24;;;;;;;;;;;;;;;18.32;57.33;100394.41;2277954;77;51788;-73
2023/01/31 15:20:42;;;;;;;;;;;;;;;18.30;57.31;100385.73;2283807;77;51572;-74
2023/01/31 15:23:43;;;;;;;;;;;;;;;18.25;57.42;100390.81;2301977;77;51626;-73
2023/01/31 15:26:47;;;;;;;;;;;;;;;18.18;57.93;100399.27;2285677;77;51577;-72
2023/01/31 15:29:54;;;;;;;;;;;;;;;18.15;58.05;100396.45;2278085;77;51024;-73
2023/01/31 15:33:00;;;;;;;;;;;;;;;18.08;58.23;100403.56;2274282;77;51595;-73
2023/01/31 15:36:04;;;;;;;;;;;;;;;17.98;58.38;100383.79;2267232;77;51667;-72
2023/01/31 15:39:06;;;;;;;;;;;;;;;17.92;58.59;100385.02;2278021;77;51670;-72
2023/01/31 15:42:21;;;;;;;;;;;;;;;17.95;58.56;100388.66;2263989;77;49566;-72
2023/01/31 15:45:23;;;;;;;;;;;;;;;18.03;58.35;100386.74;2295380;76;51579;-73
2023/01/31 15:48:25;;;;;;;;;;;;;;;18.12;58.16;100397.34;2301856;76;50461;-71
2023/01/31 15:51:26;;;;;;;;;;;;;;;18.25;57.89;100389.48;2301977;77;51455;-71